Concrete, WA (98237)

4:51 AM PST on December 05, 2016 (GMT -0800)
Challenger Ridge | | Change Station

Elev 335 ft 48.54 °N, 121.80 °W | Updated 6 seconds ago

Overcast
Overcast
32.7 °F
Feels Like 33 °F
N
0.0
Wind Variable Wind from West

Today
High -- | Low -- °F
--% Chance of Precip.
Yesterday
High -- | Low -- °F
Precip. -- in
Pressure 30.12 in
Visibility 10.0 miles
Clouds Overcast 2900 ft
Windchill 33 °F
Dew Point 32 °F
Humidity 99%
Rainfall 0.02 in
Snow Depth Not available.
7:43 AM 4:12 PM
Waxing Crescent, 31% visible
METAR KAWO 051235Z AUTO 14010KT 10SM OVC029 02/M03 A3012 RMK AO1
Pressure 30.12 in
Visibility 10.0 miles
Clouds Overcast 2900 ft
Windchill 33 °F
Dew Point 32 °F
Humidity 99%
Rainfall 0.02 in
Snow Depth Not available.
7:43 AM 4:12 PM
Waxing Crescent, 31% visible
METAR KAWO 051235Z AUTO 14010KT 10SM OVC029 02/M03 A3012 RMK AO1

10-Day Weather Forecast

Almanac

Astronomy

Dec. 05, 2016 Rise Set
Actual Time
Civil Twilight
Nautical Twilight
Astronomical Twilight
Moon
Length of Visible Light
Length of Day
Tomorrow will be .
, % of the Moon is Illuminated

Today's Extremes

State Highs State Lows

Community

WunderPhotos

Upload Photos

1,955,778 photos uploaded!

WunderBlog® & News

Nearby

Air Quality

  Air Quality AQ Index Pollutant
Not available.

Snow Depth

Station Depth Elevation

Earthquake Activity

City Distance Mag. Time & Date
Minimum magnitude displayed is 2.5.

Coastal Water Temperatures

Place Temperature

Stations

Nearby Weather Stations

Station Location Temp. Windchill Dew Point Humidity Wind Precip. Elev Updated Type
                   

Watches & Warnings

There are currently no watches in effect.